KMBG

Mobridge Municipal Airport

Mobridge, South Dakota, USA
METAR KMBG 221652Z AUTO 16008KT 10SM CLR 24/17 A2993 RMK AO2 SLP132 T02390167
Observed Flight Rules
May-22 @ 16:52 UTC (an hour ago) Visual Flight Rules
Wind Visibility Clouds
160° at 8 knots 10 miles
  • Clear skies
Temperatures Readings
Current 24°C / 75°F
Dewpoint 17°C / 63°F
Humidity 65%
Altimeter 29.93" Hg
Pressure 1013.2 hPa
Elevation 510
METAR KMBG 221652Z AUTO 16008KT 10SM CLR 24/17 A2993 RMK AO2 SLP132 T02390167
Observed Flight Rules
May-22 @ 16:52 UTC
(an hour ago)
VFR
Wind Visibility
160° at 8 knots 10 miles
Clouds
  • Clear skies
Temperature Dewpoint
24°C / 75°F 17°C / 63°F
Humidity Altimeter Pressure
65% 29.93" Hg 1013.2 hPa